• Join FlightAware (Why Join?)
  • Login
  • US Flag 
12:45PM EDT


 

Airport Tracker/Info


-or-


 

Live Flight TrackerFlight Track Log ✈ DAL5916 ✈ 30-Apr-2013 ✈ KDCA - KLGA

Flight Track Log - Related Links

Times and Time Zones

All times are in EDT time to prevent confusion due to time zone crossing. See the DAL5916 flight status page for this flight to view local times or setup timezone preferences in your user account.

Time Position Orientation Groundspeed Altitude Reporting Facility
EDT Latitude Longitude Course Direction KTS MPH feet Rate Location/Type
02:26PM 38.8814 -77.0717 74° East 174 200 1,900  Level Washington Center
02:27PM 38.9328 -77.1261 321° Northwest 252 290 4,500 3,000 Climbing Washington Center
02:28PM 39.0000 -77.1667 335° Northwest 277 319 8,300 2,880 Climbing Potomac TRACON
02:30PM 38.9839 -76.5141 74° East  Level FlightAware Approximate
02:30PM 39.0200 -76.9808 82° East 299 344 13,300  Level Washington Center
02:31PM 39.0080 -76.4058 74° East  Level FlightAware Approximate
02:31PM 39.0214 -76.8608 89° East 314 361 15,600  Level Washington Center
02:32PM 39.0225 -76.7325 89° East 337 388 17,900 2,040 Climbing Washington Center
02:33PM 39.0239 -76.5989 89° East 357 411 19,800 1,500 Climbing Washington Center
02:34PM 39.0228 -76.4600 91° East 371 427 21,000 600 Climbing Washington Center
02:35PM 39.0278 -76.3211 87° East 382 440 21,000  Level Washington Center
02:36PM 39.0350 -76.1794 86° East 387 445 21,000  Level Washington Center
02:37PM 39.0481 -76.0406 83° East 387 445 21,000  Level Washington Center
02:38PM 39.0506 -75.9017 89° East 387 445 21,000  Level Washington Center
02:39PM 39.0633 -75.7653 83° East 387 445 21,000  Level Washington Center
02:40PM 39.1258 -75.6558 54° Northeast 367 422 21,000  Level Washington Center
02:41PM 39.2092 -75.5486 45° Northeast 394 453 21,000  Level Washington Center
02:42PM 39.3031 -75.4547 38° Northeast 399 459 21,000  Level Washington Center
02:43PM 39.4008 -75.3686 34° Northeast 411 473 21,000  Level Washington Center
02:44PM 39.4964 -75.2822 35° Northeast 421 484 21,000  Level Washington Center
02:45PM 39.5942 -75.1931 35° Northeast 421 484 21,000 -300 Level Washington Center
02:46PM 39.6875 -75.1033 36° Northeast 427 491 20,400 -1,500 Descending Washington Center
02:47PM 39.7850 -75.0217 33° Northeast 418 481 18,000 -2,220 Descending Washington Center
02:48PM 39.8783 -74.9400 34° Northeast 413 475 16,000 -2,100 Descending Washington Center
02:49PM 39.9667 -74.8333 43° Northeast 382 440 13,500 -2,100 Descending New York TRACON
02:50PM 40.0500 -74.7333 43° Northeast 370 426 11,600 -1,740 Descending New York TRACON
02:51PM 40.1167 -74.6333 49° Northeast 364 419 10,100 -780 Descending New York TRACON
02:52PM 40.1833 -74.5333 49° Northeast 360 414 10,100  Level New York TRACON
02:53PM 40.2500 -74.4333 49° Northeast 361 415 10,100 -240 Level New York TRACON
02:54PM 40.3167 -74.3500 44° Northeast 299 344 9,700 -1,140 Descending New York TRACON
02:55PM 40.3667 -74.2833 45° Northeast 279 321 7,800 -1,380 Descending New York TRACON
02:56PM 40.4167 -74.2167 45° Northeast 260 299 7,100 -420 Descending New York TRACON
02:57PM 40.4667 -74.1500 45° Northeast 263 303 7,000 -960 Descending New York TRACON
02:58PM 40.5333 -74.1000 30° Northeast 264 304 5,300 -1,500 Descending New York TRACON
02:59PM 40.6000 -74.0667 21° North 268 308 4,100 -600 Descending New York TRACON
03:00PM 40.6833 -74.0500 North 269 310 4,100  Level New York TRACON
03:01PM 40.7500 -74.0167 21° North 265 305 4,100  Level New York TRACON
03:02PM 40.8167 -73.9833 21° North 262 302 4,100  Level New York TRACON
03:03PM 40.8667 -73.9333 37° Northeast 267 307 4,100 -180 Level New York TRACON
03:04PM 40.9333 -73.8833 30° Northeast 234 269 3,800 -780 Descending New York TRACON
03:05PM 40.9000 -73.8167 123° Southeast 207 238 2,600 -1,200 Descending New York TRACON